This is the latest recevied weather packets stored in our database for station/object OE-11140. If no packets are shown the sender has not sent any weather packets the latest 10 day(s).
| Time | Temp. | Humidity | Pressure | Rain* | Wind** | Luminosity | Snow |
|---|---|---|---|---|---|---|---|
| 1787928915 | 25.56° C | 58% | 1012 hPa | 0 mm | - | 20 W/m² | - |
| 1787928089 | 25.56° C | 59% | 1011.6 hPa | 0 mm | - | 33 W/m² | - |
| 1787927715 | 25.56° C | 59% | 1011.1 hPa | 0 mm | - | 80 W/m² | - |
| 1787927115 | 26.11° C | 58% | 1010.4 hPa | 0 mm | - | 139 W/m² | - |
| 1787926289 | 26.67° C | 56% | 1010.1 hPa | 0 mm | - | 219 W/m² | - |
| 1787925916 | 27.78° C | 54% | 1009.2 hPa | 0 mm | - | 364 W/m² | - |
| 1787925316 | 28.33° C | 53% | 1008.8 hPa | 0 mm | - | 543 W/m² | - |
| 1787924489 | 28.33° C | 51% | 1008.8 hPa | 0 mm | - | 285 W/m² | - |
| 1787924116 | 28.89° C | 50% | 1008.2 hPa | 0 mm | - | 265 W/m² | - |
| 1787923516 | 29.44° C | 46% | 1007.7 hPa | 0 mm | - | 172 W/m² | - |
| 1787922687 | 31.11° C | 40% | 1006.9 hPa | 0 mm | - | 205 W/m² | - |
| 1787922315 | 32.78° C | 31% | 1006.3 hPa | 0 mm | - | 186 W/m² | - |
| 1787921716 | 33.33° C | 28% | 1005.8 hPa | 0 mm | - | 239 W/m² | - |
| 1787920888 | 34.44° C | 24% | 1005.9 hPa | 0 mm | - | 477 W/m² | - |
| 1787920516 | 34.44° C | 23% | 1006 hPa | 0 mm | - | 749 W/m² | - |
| 1787919916 | 34.44° C | 23% | 1006.1 hPa | 0 mm | - | 696 W/m² | - |
| 1787919088 | 34.44° C | 22% | 1006.1 hPa | 0 mm | - | 683 W/m² | - |
| 1787918715 | 34.44° C | 24% | 1006 hPa | 0 mm | - | 742 W/m² | - |
| 1787918115 | 33.89° C | 23% | 1005.8 hPa | 0 mm | - | 497 W/m² | - |
| 1787917288 | 34.44° C | 25% | 1005.7 hPa | 0 mm | - | 789 W/m² | - |
| 1787916916 | 33.89° C | 25% | 1006 hPa | 0 mm | - | 789 W/m² | - |
| 1787916316 | 33.33° C | 32% | 1005.9 hPa | 0 mm | - | 729 W/m² | - |
| 1787915488 | 32.22° C | 31% | 1006.1 hPa | 0 mm | - | 285 W/m² | - |
| 1787915116 | 32.78° C | 28% | 1006 hPa | 0 mm | - | 364 W/m² | - |
| 1787914516 | 31.67° C | 39% | 1006.3 hPa | 0 mm | - | 663 W/m² | - |
* Rain latest hour (hover to see other rain measurements)
** Current wind speed in m/s (hover to see current wind gust speed)